createdAt,value
2019-03-22T00:00:25.504Z,75.27
2019-03-22T00:02:54.229Z,89.63
2019-03-22T00:05:23.048Z,91.87
2019-03-22T00:07:51.965Z,83.80
2019-03-22T00:10:20.924Z,112.10
2019-03-22T00:12:49.780Z,91.30
2019-03-22T00:15:18.603Z,90.17
2019-03-22T00:17:47.513Z,100.17
2019-03-22T00:20:16.246Z,110.90
2019-03-22T00:22:45.627Z,105.10
2019-03-22T00:25:15.775Z,102.63
2019-03-22T00:27:44.539Z,99.70
2019-03-22T00:30:14.105Z,99.27
2019-03-22T00:32:43.004Z,105.50
2019-03-22T00:35:12.143Z,107.50
2019-03-22T00:37:41.465Z,111.47
2019-03-22T00:40:11.457Z,104.10
2019-03-22T00:42:40.159Z,111.80
2019-03-22T00:45:10.690Z,125.67
2019-03-22T00:47:39.541Z,109.50
2019-03-22T00:50:11.290Z,124.03
2019-03-22T00:52:40.095Z,116.47
2019-03-22T00:55:10.330Z,121.63
2019-03-22T00:57:39.683Z,113.70
2019-03-22T01:00:11.086Z,119.97
2019-03-22T01:02:39.891Z,115.50
2019-03-22T01:05:09.294Z,117.67
2019-03-22T01:07:38.235Z,121.10
2019-03-22T01:10:09.539Z,133.17
2019-03-22T01:12:38.432Z,121.37
2019-03-22T01:15:09.491Z,119.27
2019-03-22T01:17:38.346Z,120.53
2019-03-22T01:20:08.972Z,115.97
2019-03-22T01:22:38.087Z,121.43
2019-03-22T01:25:07.747Z,118.47
2019-03-22T01:27:40.749Z,136.00
2019-03-22T01:30:10.287Z,135.93
2019-03-22T01:32:38.988Z,145.17
2019-03-22T01:35:08.972Z,144.37
2019-03-22T01:37:38.069Z,156.90
2019-03-22T01:40:09.433Z,150.50
2019-03-22T01:42:38.266Z,148.07
2019-03-22T01:45:10.022Z,135.23
2019-03-22T01:47:39.143Z,147.13
2019-03-22T01:50:11.248Z,154.63
2019-03-22T01:52:40.384Z,143.90
2019-03-22T01:55:10.423Z,143.53
2019-03-22T01:57:39.533Z,166.73
2019-03-22T02:00:11.467Z,144.80
2019-03-22T02:02:40.198Z,147.07
2019-03-22T02:05:09.485Z,149.43
2019-03-22T02:07:38.233Z,148.43
2019-03-22T02:10:09.608Z,148.03
2019-03-22T02:12:38.504Z,143.87
2019-03-22T02:15:09.837Z,132.33
2019-03-22T02:17:38.629Z,130.77
2019-03-22T02:20:08.994Z,133.17
2019-03-22T02:22:38.355Z,104.57
2019-03-22T02:25:07.634Z,109.30
2019-03-22T02:27:36.901Z,130.53
2019-03-22T02:30:09.172Z,129.03
2019-03-22T02:32:37.948Z,121.30
2019-03-22T02:35:08.224Z,134.10
2019-03-22T02:37:37.337Z,115.83
2019-03-22T02:40:08.799Z,123.37
2019-03-22T02:42:39.084Z,145.53
2019-03-22T02:45:10.765Z,139.60
2019-03-22T02:47:39.556Z,129.20
2019-03-22T02:50:17.785Z,132.57
2019-03-22T02:52:41.651Z,116.33
2019-03-22T02:55:11.779Z,119.10
2019-03-22T02:57:40.850Z,121.37
2019-03-22T03:00:12.482Z,122.47
2019-03-22T03:02:41.207Z,136.40
2019-03-22T03:05:10.579Z,137.03
2019-03-22T03:07:40.298Z,144.40
2019-03-22T03:10:12.440Z,151.73
2019-03-22T03:12:41.343Z,137.43
2019-03-22T03:15:13.216Z,143.10
2019-03-22T03:17:42.068Z,136.77
2019-03-22T03:20:13.731Z,137.67
2019-03-22T03:22:42.476Z,142.50
2019-03-22T03:25:11.670Z,135.97
2019-03-22T03:27:40.432Z,132.83
2019-03-22T03:30:12.185Z,145.33
2019-03-22T03:32:41.018Z,154.67
2019-03-22T03:35:10.352Z,161.50
2019-03-22T03:37:46.839Z,149.10
2019-03-22T03:40:18.656Z,157.00
2019-03-22T03:42:47.769Z,152.63
2019-03-22T03:45:19.441Z,148.67
2019-03-22T03:47:48.331Z,148.63
2019-03-22T03:50:17.067Z,140.70
2019-03-22T03:52:45.904Z,132.63
2019-03-22T03:55:17.349Z,145.17
2019-03-22T03:57:46.140Z,134.10
2019-03-22T04:00:15.054Z,130.03
2019-03-22T04:02:43.833Z,130.47
2019-03-22T04:05:14.751Z,132.80
2019-03-22T04:07:44.069Z,128.60
2019-03-22T04:10:12.930Z,143.93
2019-03-22T04:12:41.687Z,136.53
2019-03-22T04:15:10.832Z,130.90
2019-03-22T04:17:39.631Z,138.87
2019-03-22T04:20:08.962Z,130.33
2019-03-22T04:22:37.805Z,135.47
2019-03-22T04:25:08.071Z,147.97
2019-03-22T04:27:36.871Z,145.10
2019-03-22T04:30:07.603Z,146.37
2019-03-22T04:32:36.485Z,145.20
2019-03-22T04:35:07.231Z,140.67
2019-03-22T04:37:35.965Z,144.33
2019-03-22T04:40:07.514Z,135.80
2019-03-22T04:42:36.286Z,145.80
2019-03-22T04:45:06.573Z,142.47
2019-03-22T04:47:36.222Z,139.57
2019-03-22T04:50:06.406Z,128.93
2019-03-22T04:52:35.557Z,131.43
2019-03-22T04:55:05.627Z,134.70
2019-03-22T04:57:35.554Z,136.00
2019-03-22T05:00:06.653Z,131.10
2019-03-22T05:02:35.716Z,127.73
2019-03-22T05:05:06.189Z,132.13
2019-03-22T05:07:35.559Z,138.27
2019-03-22T05:10:06.687Z,146.20
2019-03-22T05:21:31.482Z,120.43
2019-03-22T05:27:30.092Z,132.20
2019-03-22T05:47:03.499Z,130.03
2019-03-22T05:50:05.162Z,150.27
2019-03-22T05:55:36.762Z,141.23
2019-03-22T05:58:05.693Z,131.47
2019-03-22T06:00:34.512Z,153.40
2019-03-22T06:03:03.241Z,160.00
2019-03-22T06:05:32.028Z,171.60
2019-03-22T06:08:00.799Z,171.90
2019-03-22T06:10:29.448Z,187.87
2019-03-22T06:12:58.125Z,191.70
2019-03-22T06:15:26.985Z,170.43
2019-03-22T06:17:55.639Z,149.07
2019-03-22T06:20:24.660Z,119.20
2019-03-22T06:22:53.451Z,101.10
2019-03-22T06:25:22.196Z,100.97
2019-03-22T06:27:50.956Z,94.53
2019-03-22T06:30:19.739Z,82.90
2019-03-22T06:32:48.409Z,81.83
2019-03-22T06:35:17.116Z,84.07
2019-03-22T06:37:45.805Z,81.63
2019-03-22T06:40:14.547Z,85.37
2019-03-22T06:42:44.696Z,72.77
2019-03-22T06:45:14.132Z,79.67
2019-03-22T06:47:42.967Z,76.17
2019-03-22T06:50:11.802Z,66.50
2019-03-22T06:52:40.462Z,67.30
2019-03-22T06:55:09.448Z,62.27
2019-03-22T06:57:38.038Z,68.47
2019-03-22T07:00:10.061Z,74.30
2019-03-22T07:02:38.806Z,73.40
2019-03-22T07:05:08.076Z,64.87
2019-03-22T07:07:36.785Z,70.97
2019-03-22T07:10:07.272Z,75.77
2019-03-22T07:12:35.896Z,79.47
2019-03-22T07:15:06.679Z,62.50
2019-03-22T07:17:35.400Z,62.33
2019-03-22T07:20:05.318Z,59.97
2019-03-22T07:22:34.448Z,67.17
2019-03-22T07:25:03.844Z,56.27
2019-03-22T07:27:32.527Z,59.10
2019-03-22T07:30:01.320Z,56.83
2019-03-22T07:32:30.104Z,55.30
2019-03-22T07:34:58.871Z,45.00
2019-03-22T07:37:27.553Z,53.60
2019-03-22T07:39:56.319Z,45.20
2019-03-22T07:42:25.051Z,48.23
2019-03-22T07:44:53.834Z,51.40
2019-03-22T07:47:22.712Z,53.30
2019-03-22T07:49:51.455Z,39.57
2019-03-22T07:52:23.380Z,47.17
2019-03-22T07:54:52.059Z,45.93
2019-03-22T07:57:20.848Z,51.63
2019-03-22T07:59:49.765Z,49.20
2019-03-22T08:02:18.419Z,45.70
2019-03-22T08:04:47.073Z,45.17
2019-03-22T08:07:15.873Z,41.40
2019-03-22T08:09:44.624Z,42.53
2019-03-22T08:12:13.481Z,37.77
2019-03-22T08:14:42.258Z,39.63
2019-03-22T08:17:11.152Z,38.13
2019-03-22T08:19:40.018Z,37.33
2019-03-22T08:22:08.849Z,37.33
2019-03-22T08:24:37.696Z,33.13
2019-03-22T08:27:06.430Z,33.63
2019-03-22T08:29:35.242Z,36.70
2019-03-22T08:32:04.018Z,43.53
2019-03-22T08:34:32.656Z,43.63
2019-03-22T08:37:01.542Z,32.83
2019-03-22T08:39:30.148Z,31.40
2019-03-22T08:41:59.030Z,33.53
2019-03-22T08:44:27.875Z,38.50
2019-03-22T08:46:56.503Z,36.70
2019-03-22T08:49:25.334Z,37.80
2019-03-22T08:51:54.239Z,29.63
2019-03-22T08:54:22.942Z,28.23
2019-03-22T08:56:51.790Z,33.60
2019-03-22T08:59:20.517Z,26.03
2019-03-22T09:01:49.326Z,29.00
2019-03-22T09:04:18.191Z,31.53
2019-03-22T09:06:47.000Z,31.00
2019-03-22T09:09:15.899Z,26.50
2019-03-22T09:11:44.706Z,25.53
2019-03-22T09:14:13.389Z,35.63
2019-03-22T09:16:42.115Z,30.53
2019-03-22T09:19:10.991Z,29.93
2019-03-22T09:21:39.822Z,34.10
2019-03-22T09:24:08.532Z,25.13
2019-03-22T09:26:47.047Z,28.47
2019-03-22T09:29:07.961Z,28.23
2019-03-22T09:31:36.719Z,21.80
2019-03-22T09:34:05.445Z,24.20
2019-03-22T09:36:34.172Z,22.43
2019-03-22T09:39:03.963Z,18.57
2019-03-22T09:41:32.963Z,20.07
2019-03-22T09:44:01.895Z,23.20
2019-03-22T09:46:30.717Z,20.00
2019-03-22T09:48:59.398Z,18.90
2019-03-22T09:51:28.255Z,22.00
2019-03-22T09:53:57.001Z,23.40
2019-03-22T09:56:25.716Z,19.80
2019-03-22T09:58:54.366Z,21.13
2019-03-22T10:01:24.265Z,19.83
2019-03-22T10:03:53.592Z,21.90
2019-03-22T10:06:22.329Z,18.13
2019-03-22T10:08:51.174Z,21.87
2019-03-22T10:11:20.002Z,22.63
2019-03-22T10:13:48.830Z,19.17
2019-03-22T10:16:17.604Z,18.33
2019-03-22T10:18:46.339Z,16.33
2019-03-22T10:21:22.517Z,21.27
2019-03-22T10:23:45.523Z,17.57
2019-03-22T10:26:14.263Z,16.73
2019-03-22T10:28:42.943Z,18.63
2019-03-22T10:31:11.714Z,19.50
2019-03-22T10:33:40.427Z,20.60
2019-03-22T10:36:09.260Z,11.27
2019-03-22T10:38:38.085Z,15.93
2019-03-22T10:41:06.843Z,19.30
2019-03-22T10:43:35.599Z,11.13
2019-03-22T10:46:04.359Z,13.83
2019-03-22T10:48:33.089Z,15.17
2019-03-22T10:51:01.879Z,17.27
2019-03-22T10:53:30.631Z,14.03
2019-03-22T10:55:59.640Z,11.57
2019-03-22T10:58:28.273Z,13.17
2019-03-22T11:00:57.210Z,11.00
2019-03-22T11:03:25.949Z,10.03
2019-03-22T11:05:54.756Z,9.37
2019-03-22T11:08:23.335Z,12.70
2019-03-22T11:10:52.050Z,11.53
2019-03-22T11:13:20.743Z,11.43
2019-03-22T11:15:49.436Z,11.83
2019-03-22T11:18:18.384Z,8.67
2019-03-22T11:20:47.196Z,7.23
2019-03-22T11:23:15.930Z,6.70
2019-03-22T11:25:45.032Z,9.30
2019-03-22T11:28:13.843Z,6.60
2019-03-22T11:30:42.611Z,11.13
2019-03-22T11:33:11.316Z,5.43
2019-03-22T11:35:40.157Z,5.97
2019-03-22T11:38:08.833Z,5.43
2019-03-22T11:40:37.625Z,5.90
2019-03-22T11:43:08.963Z,4.97
2019-03-22T11:45:36.977Z,4.97
2019-03-22T11:48:05.678Z,11.03
2019-03-22T11:50:34.869Z,8.67
2019-03-22T11:53:03.770Z,6.90
2019-03-22T11:55:32.538Z,10.10
2019-03-22T11:58:01.328Z,5.30
2019-03-22T12:00:30.093Z,6.10
2019-03-22T12:02:58.962Z,5.13
2019-03-22T12:05:27.830Z,8.40
2019-03-22T12:07:56.596Z,8.17
2019-03-22T12:10:25.603Z,7.00
2019-03-22T12:12:58.585Z,7.47
2019-03-22T12:15:27.422Z,8.07
2019-03-22T12:17:56.262Z,7.50
2019-03-22T12:20:25.131Z,13.90
2019-03-22T12:22:53.889Z,8.00
2019-03-22T12:25:24.305Z,6.97
2019-03-22T12:27:53.138Z,6.57
2019-03-22T12:30:22.100Z,8.27
2019-03-22T12:32:50.895Z,10.10
2019-03-22T12:35:19.704Z,11.27
2019-03-22T12:37:48.565Z,7.93
2019-03-22T12:40:19.309Z,23.67
2019-03-22T12:42:48.294Z,9.40
2019-03-22T12:45:19.797Z,6.70
2019-03-22T12:47:48.651Z,7.97
2019-03-22T12:50:18.130Z,8.87
2019-03-22T12:52:46.884Z,6.80
2019-03-22T12:55:17.079Z,11.57
2019-03-22T12:57:45.824Z,7.10
2019-03-22T13:00:17.442Z,7.43
2019-03-22T13:02:46.419Z,8.07
2019-03-22T13:05:15.723Z,9.77
2019-03-22T13:07:44.465Z,9.37
2019-03-22T13:10:16.684Z,7.83
2019-03-22T13:12:45.496Z,7.23
2019-03-22T13:15:14.439Z,10.73
2019-03-22T13:17:43.152Z,13.23
2019-03-22T13:20:13.821Z,7.80
2019-03-22T13:22:42.569Z,6.00
2019-03-22T13:25:13.346Z,6.37
2019-03-22T13:27:42.274Z,6.23
2019-03-22T13:30:13.763Z,6.40
2019-03-22T13:32:51.839Z,7.30
2019-03-22T13:35:12.907Z,9.40
2019-03-22T13:37:41.583Z,8.03
2019-03-22T13:40:11.496Z,6.50
2019-03-22T13:42:40.345Z,6.30
2019-03-22T13:45:09.251Z,7.73
2019-03-22T13:47:38.008Z,7.07
2019-03-22T13:50:08.427Z,9.97
2019-03-22T13:52:37.158Z,8.70
2019-03-22T13:55:07.706Z,6.10
2019-03-22T13:57:37.029Z,13.90
2019-03-22T14:00:08.174Z,7.73
2019-03-22T14:02:36.902Z,6.53
2019-03-22T14:05:08.451Z,7.50
2019-03-22T14:07:37.226Z,6.63
2019-03-22T14:10:08.689Z,7.03
2019-03-22T14:12:37.535Z,9.57
2019-03-22T14:15:07.875Z,10.97
2019-03-22T14:17:36.663Z,8.30
2019-03-22T14:20:11.092Z,7.70
2019-03-22T14:22:37.267Z,15.07
2019-03-22T14:25:06.855Z,8.33
2019-03-22T14:27:35.671Z,9.60
2019-03-22T14:30:07.684Z,9.30
2019-03-22T14:32:36.786Z,10.97
2019-03-22T14:35:07.075Z,10.43
2019-03-22T14:37:35.885Z,5.60
2019-03-22T14:40:06.413Z,8.03
2019-03-22T14:42:35.206Z,7.40
2019-03-22T14:45:06.626Z,10.47
2019-03-22T14:47:35.394Z,9.27
2019-03-22T14:50:24.679Z,9.80
2019-03-22T14:52:53.595Z,11.53
2019-03-22T14:55:22.595Z,13.13
2019-03-22T14:57:52.458Z,7.77
2019-03-22T15:00:21.289Z,7.17
2019-03-22T15:02:51.771Z,13.57
2019-03-22T15:05:20.611Z,7.57
2019-03-22T15:07:49.373Z,9.73
2019-03-22T15:10:18.202Z,11.83
2019-03-22T15:12:47.176Z,11.13
2019-03-22T15:15:17.615Z,11.97
2019-03-22T15:17:47.988Z,7.47
2019-03-22T15:20:18.463Z,7.80
2019-03-22T15:22:48.819Z,11.80
2019-03-22T15:25:19.123Z,8.50
2019-03-22T15:27:47.905Z,11.90
2019-03-22T15:30:18.211Z,10.37
2019-03-22T15:32:48.101Z,10.57
2019-03-22T15:35:18.518Z,7.60
2019-03-22T15:37:49.006Z,12.30
2019-03-22T15:40:17.749Z,13.53
2019-03-22T15:42:46.476Z,34.63
2019-03-22T15:47:44.248Z,98.33
2019-03-22T15:50:14.985Z,55.13
2019-03-22T15:52:43.809Z,10.33
2019-03-22T15:55:12.916Z,9.40
2019-03-22T15:57:41.783Z,12.17
2019-03-22T16:00:13.492Z,8.23
2019-03-22T16:02:42.345Z,7.70
2019-03-22T16:05:11.451Z,9.93
2019-03-22T16:07:40.794Z,13.50
2019-03-22T16:10:11.378Z,11.67
2019-03-22T16:12:41.026Z,16.70
2019-03-22T16:15:16.044Z,11.63
2019-03-22T16:17:46.247Z,8.97
2019-03-22T16:20:16.257Z,20.63
2019-03-22T16:22:45.202Z,14.77
2019-03-22T16:25:14.483Z,12.50
2019-03-22T16:27:43.597Z,16.57
2019-03-22T16:30:15.243Z,12.33
2019-03-22T16:32:44.278Z,15.67
2019-03-22T16:35:13.315Z,14.30
2019-03-22T16:37:42.166Z,20.20
2019-03-22T16:40:12.109Z,13.93
2019-03-22T16:42:40.979Z,18.27
2019-03-22T16:45:11.391Z,16.20
2019-03-22T16:47:40.141Z,18.20
2019-03-22T16:50:11.699Z,15.90
2019-03-22T16:52:40.456Z,18.10
2019-03-22T16:55:11.672Z,19.80
2019-03-22T16:57:40.459Z,15.97
2019-03-22T17:00:10.808Z,17.67
2019-03-22T17:02:39.674Z,19.97
2019-03-22T17:05:08.544Z,50.63
2019-03-22T17:07:37.208Z,21.60
2019-03-22T17:10:07.051Z,23.03
2019-03-22T17:12:35.854Z,23.73
2019-03-22T17:15:06.427Z,24.40
2019-03-22T17:17:35.242Z,21.97
2019-03-22T17:20:06.247Z,19.50
2019-03-22T17:22:35.079Z,20.90
2019-03-22T17:25:05.068Z,18.17
2019-03-22T17:27:33.892Z,19.90
2019-03-22T17:30:03.042Z,19.70
2019-03-22T17:32:31.956Z,20.10
2019-03-22T17:35:00.871Z,22.30
2019-03-22T17:37:29.578Z,21.80
2019-03-22T17:39:58.455Z,25.40
2019-03-22T17:42:27.214Z,17.27
2019-03-22T17:44:56.213Z,18.97
2019-03-22T17:47:26.104Z,16.97
2019-03-22T17:49:55.643Z,27.27
2019-03-22T17:52:24.922Z,26.43
2019-03-22T17:54:53.701Z,21.03
2019-03-22T17:57:22.528Z,22.90
2019-03-22T17:59:51.289Z,22.27
2019-03-22T18:02:20.060Z,31.63
2019-03-22T18:04:48.955Z,38.60
2019-03-22T18:07:18.317Z,26.40
2019-03-22T18:09:47.158Z,22.90
2019-03-22T18:12:15.961Z,24.17
2019-03-22T18:14:44.783Z,40.33
2019-03-22T18:17:13.810Z,24.83
2019-03-22T18:19:42.616Z,23.17
2019-03-22T18:22:11.365Z,28.40
2019-03-22T18:24:40.274Z,34.73
2019-03-22T18:27:09.369Z,29.37
2019-03-22T18:29:38.157Z,27.90
2019-03-22T18:32:07.051Z,43.70
2019-03-22T18:34:37.525Z,28.37
2019-03-22T18:37:06.621Z,27.40
2019-03-22T18:39:35.457Z,30.90
2019-03-22T18:42:04.594Z,25.80
2019-03-22T18:44:33.565Z,31.90
2019-03-22T18:47:02.529Z,26.93
2019-03-22T18:49:31.482Z,28.20
2019-03-22T18:52:00.314Z,35.00
2019-03-22T18:54:29.219Z,39.63
2019-03-22T18:56:58.111Z,36.90
2019-03-22T18:59:26.942Z,29.37
2019-03-22T19:01:55.923Z,31.53
2019-03-22T19:04:24.785Z,26.37
2019-03-22T19:06:53.555Z,34.33
2019-03-22T19:09:22.492Z,26.27
2019-03-22T19:11:51.279Z,35.90
2019-03-22T19:14:20.051Z,90.00
2019-03-22T19:16:48.844Z,66.10
2019-03-22T19:19:17.517Z,45.80
2019-03-22T19:21:46.334Z,34.73
2019-03-22T19:24:15.186Z,45.03
2019-03-22T19:26:44.314Z,35.40
2019-03-22T19:29:13.163Z,27.40
2019-03-22T19:31:41.992Z,23.90
2019-03-22T19:34:10.906Z,19.50
2019-03-22T19:36:39.722Z,23.90
2019-03-22T19:39:08.557Z,23.30
2019-03-22T19:41:37.392Z,21.80
2019-03-22T19:44:06.310Z,22.40
2019-03-22T19:46:35.344Z,18.90
2019-03-22T19:49:04.079Z,16.97
2019-03-22T19:51:32.908Z,12.23
2019-03-22T19:54:01.696Z,11.93
2019-03-22T19:56:30.548Z,13.97
2019-03-22T19:58:59.231Z,25.13
2019-03-22T20:01:27.961Z,20.07
2019-03-22T20:03:56.713Z,20.37
2019-03-22T20:06:25.456Z,16.80
2019-03-22T20:08:54.215Z,15.17
2019-03-22T20:11:23.000Z,12.73
2019-03-22T20:13:52.323Z,16.60
2019-03-22T20:16:21.575Z,16.17
2019-03-22T20:18:50.698Z,15.93
2019-03-22T20:21:19.432Z,19.43
2019-03-22T20:23:53.557Z,15.43
2019-03-22T20:26:18.855Z,20.43
2019-03-22T20:28:47.718Z,11.47
2019-03-22T20:31:16.650Z,14.50
2019-03-22T20:33:45.513Z,17.03
2019-03-22T20:36:14.333Z,21.53
2019-03-22T20:38:43.083Z,17.13
2019-03-22T20:41:11.988Z,16.83
2019-03-22T20:43:40.759Z,11.20
2019-03-22T20:46:09.565Z,14.10
2019-03-22T20:48:38.411Z,10.53
2019-03-22T20:51:07.294Z,10.10
2019-03-22T20:53:37.128Z,16.40
2019-03-22T20:56:05.862Z,9.60
2019-03-22T20:58:34.686Z,12.83
2019-03-22T21:01:03.523Z,10.03
2019-03-22T21:03:32.190Z,8.70
2019-03-22T21:06:01.107Z,11.30
2019-03-22T21:08:29.989Z,8.03
2019-03-22T21:10:58.812Z,9.87
2019-03-22T21:13:27.598Z,6.10
2019-03-22T21:15:56.405Z,11.53
2019-03-22T21:18:25.441Z,6.70
2019-03-22T21:20:54.279Z,5.87
2019-03-22T21:23:22.938Z,6.37
2019-03-22T21:25:53.427Z,6.70
2019-03-22T21:28:22.345Z,14.03
2019-03-22T21:30:51.145Z,6.33
2019-03-22T21:33:19.811Z,4.70
2019-03-22T21:35:48.686Z,5.40
2019-03-22T21:38:17.487Z,5.10
2019-03-22T21:40:46.351Z,8.17
2019-03-22T21:43:15.268Z,6.90
2019-03-22T21:45:45.345Z,5.50
2019-03-22T21:48:14.874Z,5.97
2019-03-22T21:50:43.861Z,5.13
2019-03-22T21:53:12.777Z,5.90
2019-03-22T21:55:41.529Z,15.87
2019-03-22T21:58:10.426Z,9.30
2019-03-22T22:00:40.635Z,6.50
2019-03-22T22:03:10.087Z,8.33
2019-03-22T22:05:47.434Z,7.03
2019-03-22T22:08:09.467Z,7.10
2019-03-22T22:10:38.342Z,6.80
2019-03-22T22:13:07.176Z,7.67
2019-03-22T22:15:36.443Z,15.03
2019-03-22T22:18:05.255Z,11.13
2019-03-22T22:20:34.237Z,15.97
2019-03-22T22:23:03.357Z,16.00
2019-03-22T22:25:32.377Z,8.13
2019-03-22T22:28:02.124Z,8.43
2019-03-22T22:30:32.785Z,10.10
2019-03-22T22:33:01.913Z,17.40
2019-03-22T22:35:31.747Z,20.70
2019-03-22T22:38:00.562Z,35.43
2019-03-22T22:40:29.402Z,20.30
2019-03-22T22:42:58.140Z,19.60
2019-03-22T22:45:26.871Z,10.67
2019-03-22T22:47:55.640Z,19.13
2019-03-22T22:50:24.491Z,11.03
2019-03-22T22:52:53.218Z,9.73
2019-03-22T22:55:21.942Z,18.37
2019-03-22T22:57:50.626Z,34.47
2019-03-22T23:00:19.430Z,31.53
2019-03-22T23:02:48.175Z,27.73
2019-03-22T23:05:17.007Z,31.03
2019-03-22T23:07:45.830Z,31.90
2019-03-22T23:10:14.948Z,29.90
2019-03-22T23:12:44.256Z,35.93
2019-03-22T23:15:13.205Z,38.33
2019-03-22T23:17:41.983Z,35.27
2019-03-22T23:20:11.427Z,37.87
2019-03-22T23:22:40.248Z,29.77
2019-03-22T23:25:09.196Z,24.47
2019-03-22T23:27:38.032Z,26.73
2019-03-22T23:30:09.860Z,27.70
2019-03-22T23:32:38.626Z,45.83
2019-03-22T23:35:08.399Z,38.90
2019-03-22T23:37:37.168Z,38.77
2019-03-22T23:40:06.646Z,27.67
2019-03-22T23:42:35.514Z,29.87
2019-03-22T23:45:07.191Z,30.47
2019-03-22T23:47:35.952Z,27.13
2019-03-22T23:50:06.932Z,30.77
2019-03-22T23:52:35.671Z,34.60
2019-03-22T23:55:06.108Z,38.43
2019-03-22T23:57:34.916Z,39.27
